sensor_id;sensor_type;location;lat;lon;timestamp;P1;durP1;ratioP1;P2;durP2;ratioP2
15716;SDS011;7960;50.908;4.204;2022-12-11T00:00:43;30.80;;;14.90;;
15716;SDS011;7960;50.908;4.204;2022-12-11T00:03:10;26.53;;;13.70;;
15716;SDS011;7960;50.908;4.204;2022-12-11T00:05:37;29.47;;;13.67;;
15716;SDS011;7960;50.908;4.204;2022-12-11T00:08:05;25.33;;;13.50;;
15716;SDS011;7960;50.908;4.204;2022-12-11T00:10:32;25.83;;;12.90;;
15716;SDS011;7960;50.908;4.204;2022-12-11T00:13:00;24.17;;;12.37;;
15716;SDS011;7960;50.908;4.204;2022-12-11T00:15:27;22.87;;;12.83;;
15716;SDS011;7960;50.908;4.204;2022-12-11T00:17:55;22.27;;;12.50;;
15716;SDS011;7960;50.908;4.204;2022-12-11T00:20:21;27.17;;;12.93;;
15716;SDS011;7960;50.908;4.204;2022-12-11T00:22:48;23.97;;;12.27;;
15716;SDS011;7960;50.908;4.204;2022-12-11T00:25:15;25.07;;;12.63;;
15716;SDS011;7960;50.908;4.204;2022-12-11T00:27:44;25.20;;;11.47;;
15716;SDS011;7960;50.908;4.204;2022-12-11T00:30:13;24.40;;;11.30;;
15716;SDS011;7960;50.908;4.204;2022-12-11T00:32:40;25.07;;;12.00;;
15716;SDS011;7960;50.908;4.204;2022-12-11T00:35:08;27.03;;;12.57;;
15716;SDS011;7960;50.908;4.204;2022-12-11T00:37:35;27.03;;;12.60;;
15716;SDS011;7960;50.908;4.204;2022-12-11T00:40:02;24.77;;;12.37;;
15716;SDS011;7960;50.908;4.204;2022-12-11T00:42:29;24.03;;;12.80;;
15716;SDS011;7960;50.908;4.204;2022-12-11T00:44:56;23.13;;;10.83;;
15716;SDS011;7960;50.908;4.204;2022-12-11T00:47:24;26.87;;;12.40;;
15716;SDS011;7960;50.908;4.204;2022-12-11T00:49:51;22.90;;;12.20;;
15716;SDS011;7960;50.908;4.204;2022-12-11T00:52:18;24.03;;;12.67;;
15716;SDS011;7960;50.908;4.204;2022-12-11T00:54:44;22.93;;;12.10;;
15716;SDS011;7960;50.908;4.204;2022-12-11T00:57:11;24.90;;;12.23;;
15716;SDS011;7960;50.908;4.204;2022-12-11T00:59:38;21.27;;;11.50;;
15716;SDS011;7960;50.908;4.204;2022-12-11T01:02:05;27.23;;;12.57;;
15716;SDS011;7960;50.908;4.204;2022-12-11T01:04:35;23.67;;;11.63;;
15716;SDS011;7960;50.908;4.204;2022-12-11T01:07:02;21.03;;;11.60;;
15716;SDS011;7960;50.908;4.204;2022-12-11T01:09:29;21.03;;;11.73;;
15716;SDS011;7960;50.908;4.204;2022-12-11T01:12:13;21.57;;;11.27;;
15716;SDS011;7960;50.908;4.204;2022-12-11T01:14:40;23.70;;;11.40;;
15716;SDS011;7960;50.908;4.204;2022-12-11T01:17:07;21.83;;;11.53;;
15716;SDS011;7960;50.908;4.204;2022-12-11T01:19:35;25.20;;;12.33;;
15716;SDS011;7960;50.908;4.204;2022-12-11T01:22:02;27.03;;;11.80;;
15716;SDS011;7960;50.908;4.204;2022-12-11T01:24:30;23.97;;;11.20;;
15716;SDS011;7960;50.908;4.204;2022-12-11T01:26:57;22.93;;;11.57;;
15716;SDS011;7960;50.908;4.204;2022-12-11T01:29:23;25.57;;;12.67;;
15716;SDS011;7960;50.908;4.204;2022-12-11T01:31:50;25.03;;;12.87;;
15716;SDS011;7960;50.908;4.204;2022-12-11T01:34:17;24.00;;;11.30;;
15716;SDS011;7960;50.908;4.204;2022-12-11T01:36:45;19.80;;;11.47;;
15716;SDS011;7960;50.908;4.204;2022-12-11T01:39:12;30.13;;;12.60;;
15716;SDS011;7960;50.908;4.204;2022-12-11T01:41:39;22.73;;;11.23;;
15716;SDS011;7960;50.908;4.204;2022-12-11T01:44:07;25.80;;;11.23;;
15716;SDS011;7960;50.908;4.204;2022-12-11T01:46:53;21.97;;;11.60;;
15716;SDS011;7960;50.908;4.204;2022-12-11T01:49:22;22.03;;;11.10;;
15716;SDS011;7960;50.908;4.204;2022-12-11T01:51:54;23.43;;;13.07;;
15716;SDS011;7960;50.908;4.204;2022-12-11T01:54:25;22.77;;;12.00;;
15716;SDS011;7960;50.908;4.204;2022-12-11T01:56:55;28.67;;;12.57;;
15716;SDS011;7960;50.908;4.204;2022-12-11T01:59:26;26.17;;;13.10;;
15716;SDS011;7960;50.908;4.204;2022-12-11T02:01:58;26.07;;;12.63;;
15716;SDS011;7960;50.908;4.204;2022-12-11T02:04:28;24.20;;;12.77;;
15716;SDS011;7960;50.908;4.204;2022-12-11T02:06:58;29.53;;;12.77;;
15716;SDS011;7960;50.908;4.204;2022-12-11T02:09:26;24.90;;;13.53;;
15716;SDS011;7960;50.908;4.204;2022-12-11T02:11:57;29.10;;;14.20;;
15716;SDS011;7960;50.908;4.204;2022-12-11T02:14:34;28.97;;;14.27;;
15716;SDS011;7960;50.908;4.204;2022-12-11T02:17:08;26.83;;;13.47;;
15716;SDS011;7960;50.908;4.204;2022-12-11T02:19:46;27.83;;;13.90;;
15716;SDS011;7960;50.908;4.204;2022-12-11T02:22:27;25.40;;;13.57;;
15716;SDS011;7960;50.908;4.204;2022-12-11T02:25:08;26.13;;;13.37;;
15716;SDS011;7960;50.908;4.204;2022-12-11T02:27:44;24.43;;;13.70;;
15716;SDS011;7960;50.908;4.204;2022-12-11T02:30:15;31.87;;;15.00;;
15716;SDS011;7960;50.908;4.204;2022-12-11T02:32:44;29.87;;;13.23;;
15716;SDS011;7960;50.908;4.204;2022-12-11T02:35:14;28.33;;;14.27;;
15716;SDS011;7960;50.908;4.204;2022-12-11T02:37:45;29.50;;;14.80;;
15716;SDS011;7960;50.908;4.204;2022-12-11T02:40:16;30.33;;;14.50;;
15716;SDS011;7960;50.908;4.204;2022-12-11T02:42:47;25.57;;;14.00;;
15716;SDS011;7960;50.908;4.204;2022-12-11T02:45:17;26.13;;;14.00;;
15716;SDS011;7960;50.908;4.204;2022-12-11T02:47:46;28.57;;;14.53;;
15716;SDS011;7960;50.908;4.204;2022-12-11T02:50:14;26.27;;;13.73;;
15716;SDS011;7960;50.908;4.204;2022-12-11T02:52:44;30.93;;;14.77;;
15716;SDS011;7960;50.908;4.204;2022-12-11T02:55:14;30.07;;;15.90;;
15716;SDS011;7960;50.908;4.204;2022-12-11T02:57:43;30.10;;;14.60;;
15716;SDS011;7960;50.908;4.204;2022-12-11T03:00:13;30.37;;;15.77;;
15716;SDS011;7960;50.908;4.204;2022-12-11T03:02:44;30.27;;;16.30;;
15716;SDS011;7960;50.908;4.204;2022-12-11T03:05:11;29.33;;;15.03;;
15716;SDS011;7960;50.908;4.204;2022-12-11T03:07:40;30.10;;;15.77;;
15716;SDS011;7960;50.908;4.204;2022-12-11T03:10:10;31.20;;;16.93;;
15716;SDS011;7960;50.908;4.204;2022-12-11T03:12:39;33.30;;;16.37;;
15716;SDS011;7960;50.908;4.204;2022-12-11T03:15:10;29.70;;;14.90;;
15716;SDS011;7960;50.908;4.204;2022-12-11T03:17:41;33.37;;;15.97;;
15716;SDS011;7960;50.908;4.204;2022-12-11T03:20:20;30.60;;;15.40;;
15716;SDS011;7960;50.908;4.204;2022-12-11T03:23:00;31.27;;;15.47;;
15716;SDS011;7960;50.908;4.204;2022-12-11T03:25:35;29.93;;;15.50;;
15716;SDS011;7960;50.908;4.204;2022-12-11T03:28:09;28.47;;;14.83;;
15716;SDS011;7960;50.908;4.204;2022-12-11T03:30:38;30.47;;;14.40;;
15716;SDS011;7960;50.908;4.204;2022-12-11T03:33:09;33.20;;;15.80;;
15716;SDS011;7960;50.908;4.204;2022-12-11T03:35:39;31.47;;;16.00;;
15716;SDS011;7960;50.908;4.204;2022-12-11T03:38:10;32.77;;;15.47;;
15716;SDS011;7960;50.908;4.204;2022-12-11T03:40:40;35.87;;;15.43;;
15716;SDS011;7960;50.908;4.204;2022-12-11T03:43:11;32.33;;;15.83;;
15716;SDS011;7960;50.908;4.204;2022-12-11T03:45:39;29.03;;;15.53;;
15716;SDS011;7960;50.908;4.204;2022-12-11T03:48:08;27.77;;;14.87;;
15716;SDS011;7960;50.908;4.204;2022-12-11T03:50:38;32.67;;;16.17;;
15716;SDS011;7960;50.908;4.204;2022-12-11T03:53:07;32.20;;;14.77;;
15716;SDS011;7960;50.908;4.204;2022-12-11T03:55:34;32.67;;;16.33;;
15716;SDS011;7960;50.908;4.204;2022-12-11T03:58:02;33.57;;;16.30;;
15716;SDS011;7960;50.908;4.204;2022-12-11T04:00:30;30.60;;;15.13;;
15716;SDS011;7960;50.908;4.204;2022-12-11T04:02:57;31.10;;;15.80;;
15716;SDS011;7960;50.908;4.204;2022-12-11T04:05:41;34.73;;;15.20;;
15716;SDS011;7960;50.908;4.204;2022-12-11T04:08:09;31.33;;;14.17;;
15716;SDS011;7960;50.908;4.204;2022-12-11T04:10:36;28.10;;;14.83;;
15716;SDS011;7960;50.908;4.204;2022-12-11T04:13:03;30.83;;;15.30;;
15716;SDS011;7960;50.908;4.204;2022-12-11T04:15:30;29.33;;;14.47;;
15716;SDS011;7960;50.908;4.204;2022-12-11T04:17:56;31.97;;;16.17;;
15716;SDS011;7960;50.908;4.204;2022-12-11T04:20:42;29.27;;;15.50;;
15716;SDS011;7960;50.908;4.204;2022-12-11T04:23:26;31.30;;;15.27;;
15716;SDS011;7960;50.908;4.204;2022-12-11T04:26:10;33.40;;;15.77;;
15716;SDS011;7960;50.908;4.204;2022-12-11T04:28:40;29.23;;;15.27;;
15716;SDS011;7960;50.908;4.204;2022-12-11T04:31:10;30.90;;;16.17;;
15716;SDS011;7960;50.908;4.204;2022-12-11T04:33:37;32.73;;;16.17;;
15716;SDS011;7960;50.908;4.204;2022-12-11T04:36:06;31.40;;;16.40;;
15716;SDS011;7960;50.908;4.204;2022-12-11T04:38:34;34.90;;;15.90;;
15716;SDS011;7960;50.908;4.204;2022-12-11T04:41:03;29.03;;;14.87;;
15716;SDS011;7960;50.908;4.204;2022-12-11T04:43:31;30.87;;;15.97;;
15716;SDS011;7960;50.908;4.204;2022-12-11T04:46:02;34.40;;;15.97;;
15716;SDS011;7960;50.908;4.204;2022-12-11T04:48:29;29.90;;;16.13;;
15716;SDS011;7960;50.908;4.204;2022-12-11T04:50:56;33.07;;;17.27;;
15716;SDS011;7960;50.908;4.204;2022-12-11T04:53:24;39.03;;;17.47;;
15716;SDS011;7960;50.908;4.204;2022-12-11T04:55:52;32.57;;;17.73;;
15716;SDS011;7960;50.908;4.204;2022-12-11T04:58:19;42.40;;;17.57;;
15716;SDS011;7960;50.908;4.204;2022-12-11T05:00:47;34.70;;;17.27;;
15716;SDS011;7960;50.908;4.204;2022-12-11T05:03:14;35.47;;;17.57;;
15716;SDS011;7960;50.908;4.204;2022-12-11T05:05:45;36.03;;;17.53;;
15716;SDS011;7960;50.908;4.204;2022-12-11T05:08:13;40.03;;;18.90;;
15716;SDS011;7960;50.908;4.204;2022-12-11T05:10:41;38.87;;;18.57;;
15716;SDS011;7960;50.908;4.204;2022-12-11T05:13:08;42.47;;;19.00;;
15716;SDS011;7960;50.908;4.204;2022-12-11T05:15:37;40.13;;;18.80;;
15716;SDS011;7960;50.908;4.204;2022-12-11T05:18:05;39.90;;;18.33;;
15716;SDS011;7960;50.908;4.204;2022-12-11T05:20:32;36.70;;;18.00;;
15716;SDS011;7960;50.908;4.204;2022-12-11T05:22:59;35.17;;;18.03;;
15716;SDS011;7960;50.908;4.204;2022-12-11T05:25:25;34.63;;;17.57;;
15716;SDS011;7960;50.908;4.204;2022-12-11T05:27:54;38.03;;;17.87;;
15716;SDS011;7960;50.908;4.204;2022-12-11T05:30:21;37.80;;;18.80;;
15716;SDS011;7960;50.908;4.204;2022-12-11T05:32:48;37.13;;;18.73;;
15716;SDS011;7960;50.908;4.204;2022-12-11T05:35:14;41.53;;;19.30;;
15716;SDS011;7960;50.908;4.204;2022-12-11T05:37:41;34.60;;;18.10;;
15716;SDS011;7960;50.908;4.204;2022-12-11T05:40:09;36.63;;;18.53;;
15716;SDS011;7960;50.908;4.204;2022-12-11T05:42:36;38.63;;;18.00;;
15716;SDS011;7960;50.908;4.204;2022-12-11T05:45:06;42.60;;;19.07;;
15716;SDS011;7960;50.908;4.204;2022-12-11T05:47:33;37.30;;;18.27;;
15716;SDS011;7960;50.908;4.204;2022-12-11T05:50:00;39.83;;;18.37;;
15716;SDS011;7960;50.908;4.204;2022-12-11T05:52:27;36.20;;;19.07;;
15716;SDS011;7960;50.908;4.204;2022-12-11T05:54:53;40.00;;;19.53;;
15716;SDS011;7960;50.908;4.204;2022-12-11T05:57:20;37.70;;;17.97;;
15716;SDS011;7960;50.908;4.204;2022-12-11T05:59:47;40.23;;;18.40;;
15716;SDS011;7960;50.908;4.204;2022-12-11T06:02:15;38.77;;;18.70;;
15716;SDS011;7960;50.908;4.204;2022-12-11T06:04:42;34.90;;;18.63;;
15716;SDS011;7960;50.908;4.204;2022-12-11T06:07:09;39.83;;;18.93;;
15716;SDS011;7960;50.908;4.204;2022-12-11T06:09:36;40.90;;;17.40;;
15716;SDS011;7960;50.908;4.204;2022-12-11T06:12:03;37.93;;;19.47;;
15716;SDS011;7960;50.908;4.204;2022-12-11T06:14:30;36.93;;;18.57;;
15716;SDS011;7960;50.908;4.204;2022-12-11T06:16:57;41.97;;;19.17;;
15716;SDS011;7960;50.908;4.204;2022-12-11T06:19:26;41.63;;;20.03;;
15716;SDS011;7960;50.908;4.204;2022-12-11T06:21:53;43.50;;;19.97;;
15716;SDS011;7960;50.908;4.204;2022-12-11T06:24:20;42.57;;;19.27;;
15716;SDS011;7960;50.908;4.204;2022-12-11T06:26:47;44.70;;;19.50;;
15716;SDS011;7960;50.908;4.204;2022-12-11T06:29:14;45.17;;;19.40;;
15716;SDS011;7960;50.908;4.204;2022-12-11T06:31:41;40.57;;;19.77;;
15716;SDS011;7960;50.908;4.204;2022-12-11T06:34:08;38.47;;;19.47;;
15716;SDS011;7960;50.908;4.204;2022-12-11T06:36:39;41.53;;;19.87;;
15716;SDS011;7960;50.908;4.204;2022-12-11T06:39:06;40.77;;;19.03;;
15716;SDS011;7960;50.908;4.204;2022-12-11T06:41:33;42.13;;;20.97;;
15716;SDS011;7960;50.908;4.204;2022-12-11T06:44:00;41.70;;;19.77;;
15716;SDS011;7960;50.908;4.204;2022-12-11T06:46:27;40.20;;;16.90;;
15716;SDS011;7960;50.908;4.204;2022-12-11T06:48:54;41.53;;;19.53;;
15716;SDS011;7960;50.908;4.204;2022-12-11T06:51:21;38.87;;;20.00;;
15716;SDS011;7960;50.908;4.204;2022-12-11T06:53:50;46.77;;;20.17;;
15716;SDS011;7960;50.908;4.204;2022-12-11T06:56:17;39.87;;;20.57;;
15716;SDS011;7960;50.908;4.204;2022-12-11T06:58:45;39.93;;;18.47;;
15716;SDS011;7960;50.908;4.204;2022-12-11T07:01:13;46.47;;;19.67;;
15716;SDS011;7960;50.908;4.204;2022-12-11T07:03:42;37.00;;;18.93;;
15716;SDS011;7960;50.908;4.204;2022-12-11T07:06:10;41.03;;;17.17;;
15716;SDS011;7960;50.908;4.204;2022-12-11T07:08:37;39.93;;;18.50;;
15716;SDS011;7960;50.908;4.204;2022-12-11T07:11:05;52.30;;;23.07;;
15716;SDS011;7960;50.908;4.204;2022-12-11T07:13:34;41.60;;;18.10;;
15716;SDS011;7960;50.908;4.204;2022-12-11T07:16:02;43.97;;;19.47;;
15716;SDS011;7960;50.908;4.204;2022-12-11T07:18:34;41.87;;;18.97;;
15716;SDS011;7960;50.908;4.204;2022-12-11T07:21:01;42.00;;;19.07;;
15716;SDS011;7960;50.908;4.204;2022-12-11T07:23:28;41.77;;;18.03;;
15716;SDS011;7960;50.908;4.204;2022-12-11T07:25:55;39.70;;;17.87;;
15716;SDS011;7960;50.908;4.204;2022-12-11T07:28:24;39.37;;;16.70;;
15716;SDS011;7960;50.908;4.204;2022-12-11T07:30:51;38.90;;;17.93;;
15716;SDS011;7960;50.908;4.204;2022-12-11T07:33:18;35.67;;;17.40;;
15716;SDS011;7960;50.908;4.204;2022-12-11T07:35:45;36.87;;;17.90;;
15716;SDS011;7960;50.908;4.204;2022-12-11T07:38:12;36.33;;;18.03;;
15716;SDS011;7960;50.908;4.204;2022-12-11T07:40:38;38.57;;;17.47;;
15716;SDS011;7960;50.908;4.204;2022-12-11T07:43:05;42.83;;;19.00;;
15716;SDS011;7960;50.908;4.204;2022-12-11T07:45:33;39.97;;;16.90;;
15716;SDS011;7960;50.908;4.204;2022-12-11T07:48:00;40.40;;;17.33;;
15716;SDS011;7960;50.908;4.204;2022-12-11T07:50:27;33.57;;;16.27;;
15716;SDS011;7960;50.908;4.204;2022-12-11T07:52:54;33.53;;;16.73;;
15716;SDS011;7960;50.908;4.204;2022-12-11T07:55:21;34.20;;;16.87;;
15716;SDS011;7960;50.908;4.204;2022-12-11T07:57:48;32.83;;;16.53;;
15716;SDS011;7960;50.908;4.204;2022-12-11T08:00:15;33.00;;;14.77;;
15716;SDS011;7960;50.908;4.204;2022-12-11T08:02:43;34.40;;;16.30;;
15716;SDS011;7960;50.908;4.204;2022-12-11T08:05:10;33.27;;;16.63;;
15716;SDS011;7960;50.908;4.204;2022-12-11T08:07:37;33.33;;;14.90;;
15716;SDS011;7960;50.908;4.204;2022-12-11T08:10:04;33.30;;;16.27;;
15716;SDS011;7960;50.908;4.204;2022-12-11T08:12:32;36.57;;;15.90;;
15716;SDS011;7960;50.908;4.204;2022-12-11T08:14:58;32.67;;;15.50;;
15716;SDS011;7960;50.908;4.204;2022-12-11T08:17:26;35.00;;;17.17;;
15716;SDS011;7960;50.908;4.204;2022-12-11T08:19:54;36.17;;;17.73;;
15716;SDS011;7960;50.908;4.204;2022-12-11T08:22:21;37.37;;;15.93;;
15716;SDS011;7960;50.908;4.204;2022-12-11T08:24:48;37.13;;;17.70;;
15716;SDS011;7960;50.908;4.204;2022-12-11T08:27:15;33.17;;;17.03;;
15716;SDS011;7960;50.908;4.204;2022-12-11T08:29:43;38.40;;;17.13;;
15716;SDS011;7960;50.908;4.204;2022-12-11T08:32:11;33.17;;;16.33;;
15716;SDS011;7960;50.908;4.204;2022-12-11T08:34:40;35.40;;;17.17;;
15716;SDS011;7960;50.908;4.204;2022-12-11T08:37:08;40.43;;;16.70;;
15716;SDS011;7960;50.908;4.204;2022-12-11T08:39:36;38.83;;;16.97;;
15716;SDS011;7960;50.908;4.204;2022-12-11T08:42:03;37.97;;;17.67;;
15716;SDS011;7960;50.908;4.204;2022-12-11T08:44:30;36.20;;;16.37;;
15716;SDS011;7960;50.908;4.204;2022-12-11T08:46:57;39.30;;;17.03;;
15716;SDS011;7960;50.908;4.204;2022-12-11T08:49:24;39.10;;;16.37;;
15716;SDS011;7960;50.908;4.204;2022-12-11T08:51:51;37.87;;;16.80;;
15716;SDS011;7960;50.908;4.204;2022-12-11T08:54:20;30.53;;;15.30;;
15716;SDS011;7960;50.908;4.204;2022-12-11T08:56:46;36.47;;;15.97;;
15716;SDS011;7960;50.908;4.204;2022-12-11T08:59:13;34.40;;;15.07;;
15716;SDS011;7960;50.908;4.204;2022-12-11T09:01:42;36.63;;;16.47;;
15716;SDS011;7960;50.908;4.204;2022-12-11T09:04:10;34.90;;;16.33;;
15716;SDS011;7960;50.908;4.204;2022-12-11T09:06:36;35.83;;;14.53;;
15716;SDS011;7960;50.908;4.204;2022-12-11T09:09:03;38.77;;;16.40;;
15716;SDS011;7960;50.908;4.204;2022-12-11T09:11:34;31.47;;;14.00;;
15716;SDS011;7960;50.908;4.204;2022-12-11T09:14:02;32.57;;;16.10;;
15716;SDS011;7960;50.908;4.204;2022-12-11T09:16:30;33.87;;;15.53;;
15716;SDS011;7960;50.908;4.204;2022-12-11T09:18:58;36.97;;;15.80;;
15716;SDS011;7960;50.908;4.204;2022-12-11T09:21:25;32.80;;;15.43;;
15716;SDS011;7960;50.908;4.204;2022-12-11T09:23:54;35.10;;;15.50;;
15716;SDS011;7960;50.908;4.204;2022-12-11T09:26:22;36.07;;;15.83;;
15716;SDS011;7960;50.908;4.204;2022-12-11T09:28:51;36.13;;;16.23;;
15716;SDS011;7960;50.908;4.204;2022-12-11T09:31:19;36.03;;;14.87;;
15716;SDS011;7960;50.908;4.204;2022-12-11T09:33:48;37.60;;;16.60;;
15716;SDS011;7960;50.908;4.204;2022-12-11T09:36:16;36.30;;;16.47;;
15716;SDS011;7960;50.908;4.204;2022-12-11T09:38:43;38.63;;;16.97;;
15716;SDS011;7960;50.908;4.204;2022-12-11T09:41:26;36.73;;;16.07;;
15716;SDS011;7960;50.908;4.204;2022-12-11T09:44:03;39.17;;;16.33;;
15716;SDS011;7960;50.908;4.204;2022-12-11T09:46:41;36.70;;;16.27;;
15716;SDS011;7960;50.908;4.204;2022-12-11T09:49:11;37.33;;;14.50;;
15716;SDS011;7960;50.908;4.204;2022-12-11T09:51:48;35.73;;;16.17;;
15716;SDS011;7960;50.908;4.204;2022-12-11T09:54:23;40.03;;;17.13;;
15716;SDS011;7960;50.908;4.204;2022-12-11T09:56:52;36.37;;;15.97;;
15716;SDS011;7960;50.908;4.204;2022-12-11T09:59:28;37.60;;;15.10;;
15716;SDS011;7960;50.908;4.204;2022-12-11T10:02:01;34.43;;;15.50;;
15716;SDS011;7960;50.908;4.204;2022-12-11T10:04:41;39.77;;;15.40;;
15716;SDS011;7960;50.908;4.204;2022-12-11T10:07:19;37.23;;;15.87;;
15716;SDS011;7960;50.908;4.204;2022-12-11T10:09:54;34.00;;;15.00;;
15716;SDS011;7960;50.908;4.204;2022-12-11T10:12:30;38.23;;;16.07;;
15716;SDS011;7960;50.908;4.204;2022-12-11T10:15:11;36.00;;;15.40;;
15716;SDS011;7960;50.908;4.204;2022-12-11T10:17:44;35.17;;;15.63;;
15716;SDS011;7960;50.908;4.204;2022-12-11T10:20:22;33.97;;;15.50;;
15716;SDS011;7960;50.908;4.204;2022-12-11T10:22:51;28.13;;;13.77;;
15716;SDS011;7960;50.908;4.204;2022-12-11T10:25:21;34.43;;;14.53;;
15716;SDS011;7960;50.908;4.204;2022-12-11T10:27:52;34.97;;;14.93;;
15716;SDS011;7960;50.908;4.204;2022-12-11T10:30:21;35.33;;;15.40;;
15716;SDS011;7960;50.908;4.204;2022-12-11T10:32:51;31.50;;;14.83;;
15716;SDS011;7960;50.908;4.204;2022-12-11T10:35:25;31.23;;;14.80;;
15716;SDS011;7960;50.908;4.204;2022-12-11T10:38:00;31.17;;;14.37;;
15716;SDS011;7960;50.908;4.204;2022-12-11T10:40:37;32.20;;;14.30;;
15716;SDS011;7960;50.908;4.204;2022-12-11T10:43:05;32.07;;;14.70;;
15716;SDS011;7960;50.908;4.204;2022-12-11T10:45:34;33.83;;;13.07;;
15716;SDS011;7960;50.908;4.204;2022-12-11T10:48:02;34.83;;;15.30;;
15716;SDS011;7960;50.908;4.204;2022-12-11T10:50:30;32.87;;;14.03;;
15716;SDS011;7960;50.908;4.204;2022-12-11T10:52:57;36.63;;;15.00;;
15716;SDS011;7960;50.908;4.204;2022-12-11T10:55:24;28.10;;;13.33;;
15716;SDS011;7960;50.908;4.204;2022-12-11T10:57:54;28.23;;;13.00;;
15716;SDS011;7960;50.908;4.204;2022-12-11T11:00:35;32.57;;;14.27;;
15716;SDS011;7960;50.908;4.204;2022-12-11T11:03:04;28.23;;;13.77;;
15716;SDS011;7960;50.908;4.204;2022-12-11T11:05:45;29.03;;;13.47;;
15716;SDS011;7960;50.908;4.204;2022-12-11T11:08:13;29.00;;;13.20;;
15716;SDS011;7960;50.908;4.204;2022-12-11T11:10:50;31.63;;;13.50;;
15716;SDS011;7960;50.908;4.204;2022-12-11T11:13:19;35.67;;;13.83;;
15716;SDS011;7960;50.908;4.204;2022-12-11T11:15:49;26.20;;;13.07;;
15716;SDS011;7960;50.908;4.204;2022-12-11T11:18:24;29.10;;;12.93;;
15716;SDS011;7960;50.908;4.204;2022-12-11T11:20:52;29.83;;;12.77;;
15716;SDS011;7960;50.908;4.204;2022-12-11T11:23:20;24.50;;;10.93;;
15716;SDS011;7960;50.908;4.204;2022-12-11T11:25:48;26.73;;;12.20;;
15716;SDS011;7960;50.908;4.204;2022-12-11T11:28:17;28.10;;;12.00;;
15716;SDS011;7960;50.908;4.204;2022-12-11T11:30:56;26.83;;;11.90;;
15716;SDS011;7960;50.908;4.204;2022-12-11T11:33:26;28.83;;;13.33;;
15716;SDS011;7960;50.908;4.204;2022-12-11T11:35:54;24.17;;;11.90;;
15716;SDS011;7960;50.908;4.204;2022-12-11T11:38:24;23.80;;;11.13;;
15716;SDS011;7960;50.908;4.204;2022-12-11T11:40:56;34.00;;;10.63;;
15716;SDS011;7960;50.908;4.204;2022-12-11T11:43:33;29.30;;;11.73;;
15716;SDS011;7960;50.908;4.204;2022-12-11T11:46:07;26.57;;;11.47;;
15716;SDS011;7960;50.908;4.204;2022-12-11T11:48:39;24.60;;;11.17;;
15716;SDS011;7960;50.908;4.204;2022-12-11T11:51:14;23.77;;;11.33;;
15716;SDS011;7960;50.908;4.204;2022-12-11T11:53:45;22.60;;;9.93;;
15716;SDS011;7960;50.908;4.204;2022-12-11T11:56:21;20.03;;;10.80;;
15716;SDS011;7960;50.908;4.204;2022-12-11T11:58:53;25.57;;;11.50;;
15716;SDS011;7960;50.908;4.204;2022-12-11T12:01:28;28.83;;;10.97;;
15716;SDS011;7960;50.908;4.204;2022-12-11T12:03:55;23.67;;;10.77;;
15716;SDS011;7960;50.908;4.204;2022-12-11T12:06:26;22.63;;;10.57;;
15716;SDS011;7960;50.908;4.204;2022-12-11T12:09:06;25.43;;;11.30;;
15716;SDS011;7960;50.908;4.204;2022-12-11T12:11:44;22.67;;;10.33;;
15716;SDS011;7960;50.908;4.204;2022-12-11T12:14:19;23.37;;;10.67;;
15716;SDS011;7960;50.908;4.204;2022-12-11T12:16:53;21.70;;;11.73;;
15716;SDS011;7960;50.908;4.204;2022-12-11T12:19:40;31.40;;;12.13;;
15716;SDS011;7960;50.908;4.204;2022-12-11T12:22:15;21.57;;;11.10;;
15716;SDS011;7960;50.908;4.204;2022-12-11T12:24:58;25.33;;;11.43;;
15716;SDS011;7960;50.908;4.204;2022-12-11T12:27:33;26.83;;;11.87;;
15716;SDS011;7960;50.908;4.204;2022-12-11T12:30:10;24.43;;;12.30;;
15716;SDS011;7960;50.908;4.204;2022-12-11T12:32:42;22.57;;;11.43;;
15716;SDS011;7960;50.908;4.204;2022-12-11T12:35:27;29.20;;;12.23;;
15716;SDS011;7960;50.908;4.204;2022-12-11T12:38:02;25.30;;;12.57;;
15716;SDS011;7960;50.908;4.204;2022-12-11T12:40:36;46.10;;;25.27;;
15716;SDS011;7960;50.908;4.204;2022-12-11T12:43:25;67.07;;;29.63;;
15716;SDS011;7960;50.908;4.204;2022-12-11T12:46:13;26.53;;;13.47;;
15716;SDS011;7960;50.908;4.204;2022-12-11T12:48:51;25.57;;;13.27;;
15716;SDS011;7960;50.908;4.204;2022-12-11T12:51:20;24.73;;;13.50;;
15716;SDS011;7960;50.908;4.204;2022-12-11T12:53:48;46.73;;;23.03;;
15716;SDS011;7960;50.908;4.204;2022-12-11T12:56:19;29.40;;;13.63;;
15716;SDS011;7960;50.908;4.204;2022-12-11T12:58:47;30.10;;;14.33;;
15716;SDS011;7960;50.908;4.204;2022-12-11T13:01:16;31.40;;;15.27;;
15716;SDS011;7960;50.908;4.204;2022-12-11T13:03:54;30.60;;;14.30;;
15716;SDS011;7960;50.908;4.204;2022-12-11T13:06:29;29.03;;;14.27;;
15716;SDS011;7960;50.908;4.204;2022-12-11T13:09:13;32.97;;;14.73;;
15716;SDS011;7960;50.908;4.204;2022-12-11T13:11:42;33.03;;;16.10;;
15716;SDS011;7960;50.908;4.204;2022-12-11T13:14:21;33.83;;;17.67;;
15716;SDS011;7960;50.908;4.204;2022-12-11T13:17:03;33.00;;;16.23;;
15716;SDS011;7960;50.908;4.204;2022-12-11T13:19:34;33.40;;;13.83;;
15716;SDS011;7960;50.908;4.204;2022-12-11T13:22:02;33.93;;;15.30;;
15716;SDS011;7960;50.908;4.204;2022-12-11T13:24:30;36.00;;;14.97;;
15716;SDS011;7960;50.908;4.204;2022-12-11T13:27:09;30.90;;;15.40;;
15716;SDS011;7960;50.908;4.204;2022-12-11T13:29:48;38.73;;;16.93;;
15716;SDS011;7960;50.908;4.204;2022-12-11T13:32:21;39.40;;;19.90;;
15716;SDS011;7960;50.908;4.204;2022-12-11T13:34:57;39.57;;;17.77;;
15716;SDS011;7960;50.908;4.204;2022-12-11T13:37:26;37.30;;;15.47;;
15716;SDS011;7960;50.908;4.204;2022-12-11T13:39:55;31.67;;;16.17;;
15716;SDS011;7960;50.908;4.204;2022-12-11T13:42:25;35.87;;;15.67;;
15716;SDS011;7960;50.908;4.204;2022-12-11T13:44:56;42.47;;;17.83;;
15716;SDS011;7960;50.908;4.204;2022-12-11T13:47:24;41.27;;;18.80;;
15716;SDS011;7960;50.908;4.204;2022-12-11T13:49:52;36.97;;;16.10;;
15716;SDS011;7960;50.908;4.204;2022-12-11T13:52:23;44.00;;;17.70;;
15716;SDS011;7960;50.908;4.204;2022-12-11T13:54:52;40.03;;;17.40;;
15716;SDS011;7960;50.908;4.204;2022-12-11T13:57:20;36.70;;;17.00;;
15716;SDS011;7960;50.908;4.204;2022-12-11T13:59:50;33.47;;;15.47;;
15716;SDS011;7960;50.908;4.204;2022-12-11T14:02:19;32.37;;;15.70;;
15716;SDS011;7960;50.908;4.204;2022-12-11T14:04:49;37.60;;;16.27;;
15716;SDS011;7960;50.908;4.204;2022-12-11T14:07:22;34.77;;;15.87;;
15716;SDS011;7960;50.908;4.204;2022-12-11T14:09:52;41.83;;;17.27;;
15716;SDS011;7960;50.908;4.204;2022-12-11T14:12:25;40.63;;;17.27;;
15716;SDS011;7960;50.908;4.204;2022-12-11T14:14:54;37.37;;;16.20;;
15716;SDS011;7960;50.908;4.204;2022-12-11T14:17:23;40.10;;;17.43;;
15716;SDS011;7960;50.908;4.204;2022-12-11T14:19:55;41.17;;;17.90;;
15716;SDS011;7960;50.908;4.204;2022-12-11T14:22:26;45.03;;;17.87;;
15716;SDS011;7960;50.908;4.204;2022-12-11T14:24:55;41.63;;;17.37;;
15716;SDS011;7960;50.908;4.204;2022-12-11T14:27:24;51.23;;;23.60;;
15716;SDS011;7960;50.908;4.204;2022-12-11T14:29:52;76.13;;;35.03;;
15716;SDS011;7960;50.908;4.204;2022-12-11T14:32:22;65.50;;;28.33;;
15716;SDS011;7960;50.908;4.204;2022-12-11T14:34:56;54.13;;;21.43;;
15716;SDS011;7960;50.908;4.204;2022-12-11T14:37:24;51.73;;;20.27;;
15716;SDS011;7960;50.908;4.204;2022-12-11T14:39:57;50.93;;;21.60;;
15716;SDS011;7960;50.908;4.204;2022-12-11T14:42:27;46.80;;;19.10;;
15716;SDS011;7960;50.908;4.204;2022-12-11T14:44:59;43.67;;;18.77;;
15716;SDS011;7960;50.908;4.204;2022-12-11T14:47:31;43.80;;;18.37;;
15716;SDS011;7960;50.908;4.204;2022-12-11T14:50:03;39.67;;;17.63;;